Time;durP1;ratioP1;P1;durP2;ratioP2;P2;SDS_P1;SDS_P2;PMS_P1;PMS_P2;Temp;Humidity;BMP_temperature;BMP_pressure;BME280_temperature;BME280_humidity;BME280_pressure;Samples;Min_cycle;Max_cycle;Signal;HPM_P1;HPM_P2
2022/09/15 00:00:06;;;;;;;6.30;2.55;;;;;;;14.65;87.88;99562.78;5061688;28;20040;-61
2022/09/15 00:02:33;;;;;;;10.90;3.33;;;;;;;14.66;88.34;99558.31;5063796;28;20133;-66
2022/09/15 00:05:00;;;;;;;11.63;3.10;;;;;;;14.68;87.56;99554.56;5070376;28;20061;-63
2022/09/15 00:07:27;;;;;;;7.55;2.70;;;;;;;14.66;87.90;99559.16;5070922;28;20060;-63
2022/09/15 00:09:54;;;;;;;13.57;3.15;;;;;;;14.67;88.26;99567.94;5063811;28;20130;-63
2022/09/15 00:12:22;;;;;;;9.07;3.08;;;;;;;14.62;89.43;99570.16;5051786;28;20440;-64
2022/09/15 00:14:49;;;;;;;9.18;2.83;;;;;;;14.60;87.87;99564.19;5064468;28;20052;-60
2022/09/15 00:17:16;;;;;;;9.15;2.58;;;;;;;14.59;88.47;99568.66;5071696;28;20078;-63
2022/09/15 00:19:43;;;;;;;8.32;2.83;;;;;;;14.61;87.86;99568.50;5069096;28;20116;-61
2022/09/15 00:22:10;;;;;;;8.82;3.63;;;;;;;14.54;89.12;99556.78;5062818;28;20045;-59
2022/09/15 00:24:38;;;;;;;10.63;3.00;;;;;;;14.56;89.13;99549.56;5054782;28;20067;-65
2022/09/15 00:27:05;;;;;;;12.18;2.75;;;;;;;14.50;89.58;99548.31;5063562;28;20482;-61
2022/09/15 00:29:32;;;;;;;7.57;2.25;;;;;;;14.52;89.22;99549.00;5068322;28;20057;-61
2022/09/15 00:31:59;;;;;;;12.27;2.70;;;;;;;14.60;89.24;99543.00;5065971;28;20123;-63
2022/09/15 00:34:27;;;;;;;8.23;2.80;;;;;;;14.49;89.05;99543.97;5077432;28;20056;-61
2022/09/15 00:36:54;;;;;;;8.60;2.65;;;;;;;14.48;89.63;99544.97;5069438;28;20087;-63
2022/09/15 00:39:21;;;;;;;13.90;2.80;;;;;;;14.47;89.77;99545.09;5072550;28;20060;-60
2022/09/15 00:41:48;;;;;;;11.45;3.40;;;;;;;14.48;89.02;99552.03;5040136;28;20659;-63
2022/09/15 00:44:15;;;;;;;8.68;2.53;;;;;;;14.52;88.92;99549.00;5062403;28;20060;-64
2022/09/15 00:46:46;;;;;;;9.60;2.95;;;;;;;14.57;88.82;99552.06;5072828;28;20071;-64
2022/09/15 00:49:34;;;;;;;9.57;3.30;;;;;;;14.50;89.78;99561.56;5047291;28;20527;-65
2022/09/15 00:52:09;;;;;;;8.32;2.90;;;;;;;14.40;90.53;99558.03;5065015;28;20777;-61
2022/09/15 00:55:00;;;;;;;8.90;2.67;;;;;;;14.32;91.08;99549.94;5044120;28;20056;-62
2022/09/15 00:57:31;;;;;;;9.40;3.05;;;;;;;14.29;92.04;99558.19;5047934;28;20079;-62
2022/09/15 00:59:59;;;;;;;15.93;3.13;;;;;;;14.26;92.25;99555.81;5057675;28;20194;-61
2022/09/15 01:02:29;;;;;;;10.05;2.75;;;;;;;14.19;92.83;99547.63;5049082;28;20059;-64
2022/09/15 01:04:57;;;;;;;7.97;2.80;;;;;;;14.16;93.27;99548.72;5059540;28;20052;-64
2022/09/15 01:07:31;;;;;;;8.90;3.17;;;;;;;14.12;93.66;99549.13;5064050;28;20056;-61
2022/09/15 01:10:03;;;;;;;10.00;3.33;;;;;;;14.08;93.56;99561.81;5052010;28;20056;-63
2022/09/15 01:12:30;;;;;;;9.27;2.67;;;;;;;14.14;93.09;99565.72;5051616;28;20051;-61
2022/09/15 01:15:00;;;;;;;8.80;2.67;;;;;;;14.26;92.94;99547.88;5069719;28;20053;-61
2022/09/15 01:17:53;;;;;;;8.23;2.85;;;;;;;14.13;93.44;99551.63;5061066;28;20112;-61
2022/09/15 01:20:31;;;;;;;10.77;3.28;;;;;;;14.07;94.74;99554.84;5053460;28;20048;-64
2022/09/15 01:23:35;;;;;;;10.85;3.20;;;;;;;14.02;95.02;99553.59;5064046;28;20049;-62
2022/09/15 01:26:20;;;;;;;11.65;3.38;;;;;;;13.89;96.56;99556.50;5071982;28;20048;-62
2022/09/15 01:28:47;;;;;;;8.18;3.05;;;;;;;13.79;97.94;99561.78;5041486;28;20556;-63
2022/09/15 01:31:28;;;;;;;10.00;3.78;;;;;;;13.80;97.51;99558.16;5077265;28;20421;-63
2022/09/15 01:34:08;;;;;;;8.77;3.05;;;;;;;13.87;97.50;99566.41;5051901;28;20334;-62
2022/09/15 01:36:46;;;;;;;11.50;2.83;;;;;;;13.81;97.43;99566.94;5055484;28;20061;-61
2022/09/15 01:39:17;;;;;;;10.60;3.17;;;;;;;13.88;96.92;99568.06;5054646;28;20052;-63
2022/09/15 01:41:47;;;;;;;12.07;3.33;;;;;;;13.82;97.69;99556.19;5055286;28;20068;-62
2022/09/15 01:44:19;;;;;;;7.85;2.85;;;;;;;13.80;97.45;99565.25;5069228;28;20048;-62
2022/09/15 01:46:48;;;;;;;7.50;3.28;;;;;;;13.76;97.91;99563.88;5056481;28;20051;-62
2022/09/15 01:49:20;;;;;;;7.50;2.80;;;;;;;13.79;97.40;99566.25;5049979;28;20773;-63
2022/09/15 01:51:50;;;;;;;7.95;2.58;;;;;;;13.74;97.80;99556.06;5050109;28;20082;-61
2022/09/15 01:54:21;;;;;;;7.43;2.95;;;;;;;13.80;97.34;99559.97;5076958;28;20079;-61
2022/09/15 01:56:48;;;;;;;10.10;2.95;;;;;;;13.78;96.51;99559.25;5053234;28;20049;-59
2022/09/15 01:59:15;;;;;;;5.50;2.63;;;;;;;13.73;96.97;99556.19;5064818;28;20064;-65
2022/09/15 02:01:50;;;;;;;12.68;3.25;;;;;;;13.64;98.92;99557.84;5073523;28;20052;-63
2022/09/15 02:04:30;;;;;;;6.88;3.10;;;;;;;13.60;99.26;99556.47;5047813;28;20044;-61
2022/09/15 02:07:05;;;;;;;10.82;3.35;;;;;;;13.53;100.00;99566.72;5056848;28;20066;-63
2022/09/15 02:09:36;;;;;;;7.43;2.60;;;;;;;13.52;100.00;99567.72;5044929;28;20048;-61
2022/09/15 02:12:38;;;;;;;8.27;2.80;;;;;;;13.48;100.00;99557.53;5038513;28;20041;-61
2022/09/15 02:15:11;;;;;;;12.15;2.80;;;;;;;13.40;100.00;99556.41;5044131;28;20052;-62
2022/09/15 02:17:44;;;;;;;11.15;3.30;;;;;;;13.35;100.00;99563.91;5069835;28;20909;-63
2022/09/15 02:20:19;;;;;;;11.77;3.00;;;;;;;13.38;100.00;99552.22;5054784;28;20052;-63
2022/09/15 02:22:52;;;;;;;11.23;3.45;;;;;;;13.42;100.00;99562.41;5054209;28;20140;-63
2022/09/15 02:25:23;;;;;;;9.80;3.22;;;;;;;13.41;100.00;99559.88;5045704;28;21847;-62
2022/09/15 02:27:53;;;;;;;9.32;3.40;;;;;;;13.46;100.00;99559.47;5045727;28;20061;-66
2022/09/15 02:30:21;;;;;;;16.30;3.92;;;;;;;13.49;100.00;99560.03;5055398;28;20059;-63
2022/09/15 02:33:01;;;;;;;10.32;3.40;;;;;;;13.47;100.00;99555.88;5047728;28;20048;-61
2022/09/15 02:35:29;;;;;;;8.50;3.65;;;;;;;13.49;100.00;99549.47;5065006;28;20417;-61
2022/09/15 02:37:59;;;;;;;8.35;2.55;;;;;;;13.55;99.49;99553.38;5048321;28;20033;-63
2022/09/15 02:40:27;;;;;;;12.27;2.97;;;;;;;13.54;99.41;99560.47;5043693;28;20631;-63
2022/09/15 02:42:56;;;;;;;11.85;3.35;;;;;;;13.48;100.00;99558.38;5067567;28;20143;-61
2022/09/15 02:45:24;;;;;;;15.52;2.97;;;;;;;13.42;100.00;99553.63;5074622;28;20044;-62
2022/09/15 02:47:51;;;;;;;10.65;3.10;;;;;;;13.38;100.00;99557.53;5064633;28;20572;-59
2022/09/15 02:50:19;;;;;;;10.88;2.95;;;;;;;13.40;100.00;99556.41;5066236;28;20051;-63
2022/09/15 02:52:46;;;;;;;10.43;3.65;;;;;;;13.38;100.00;99561.00;5059003;28;20063;-63
2022/09/15 02:55:14;;;;;;;11.90;3.25;;;;;;;13.37;100.00;99564.63;5080648;28;20056;-62
2022/09/15 02:57:41;;;;;;;14.65;4.38;;;;;;;13.37;100.00;99563.75;5073790;28;20048;-64
2022/09/15 03:00:13;;;;;;;8.27;2.95;;;;;;;13.34;100.00;99567.53;5065624;28;20070;-62
2022/09/15 03:02:45;;;;;;;11.75;3.50;;;;;;;13.39;99.77;99567.94;5068592;28;20048;-63
2022/09/15 03:05:13;;;;;;;17.30;4.57;;;;;;;13.33;100.00;99567.66;5063574;28;20053;-61
2022/09/15 03:07:40;;;;;;;12.50;4.00;;;;;;;13.25;100.00;99562.19;5067460;28;20059;-65
2022/09/15 03:10:09;;;;;;;15.82;4.40;;;;;;;13.20;100.00;99559.09;5054848;28;20040;-61
2022/09/15 03:12:43;;;;;;;20.52;4.43;;;;;;;13.18;100.00;99567.13;5043951;28;20468;-62
2022/09/15 03:15:12;;;;;;;11.75;4.35;;;;;;;13.15;100.00;99565.59;5067467;28;20044;-58
2022/09/15 03:17:41;;;;;;;10.95;3.75;;;;;;;13.15;100.00;99560.31;5066540;28;20048;-62
2022/09/15 03:20:10;;;;;;;7.50;3.33;;;;;;;13.15;100.00;99562.13;5056984;28;20126;-63
2022/09/15 03:22:38;;;;;;;12.77;4.18;;;;;;;13.16;100.00;99562.00;5066435;28;20147;-62
2022/09/15 03:25:06;;;;;;;14.70;3.53;;;;;;;13.16;100.00;99554.06;5067211;28;20048;-65
2022/09/15 03:27:33;;;;;;;9.57;3.50;;;;;;;13.17;100.00;99554.91;5073908;28;20060;-64
2022/09/15 03:30:01;;;;;;;10.63;3.30;;;;;;;13.14;100.00;99557.78;5053802;28;20477;-66
2022/09/15 03:32:28;;;;;;;9.82;3.80;;;;;;;13.12;100.00;99560.56;5068438;28;20045;-64
2022/09/15 03:34:55;;;;;;;9.02;3.83;;;;;;;13.12;99.96;99559.75;5063509;28;20042;-63
2022/09/15 03:37:24;;;;;;;9.23;3.17;;;;;;;13.15;100.00;99554.22;5070794;28;20528;-61
2022/09/15 03:39:52;;;;;;;13.60;3.65;;;;;;;13.08;100.00;99551.25;5045444;28;20052;-64
2022/09/15 03:42:20;;;;;;;13.48;3.90;;;;;;;13.09;99.72;99555.53;5066088;28;20094;-62
2022/09/15 03:44:47;;;;;;;14.88;3.67;;;;;;;13.06;100.00;99562.94;5053389;28;20236;-64
2022/09/15 03:47:14;;;;;;;11.02;3.55;;;;;;;13.00;100.00;99558.16;5064581;28;20407;-61
2022/09/15 03:49:41;;;;;;;11.73;3.78;;;;;;;12.97;100.00;99561.91;5062457;28;20512;-63
2022/09/15 03:52:09;;;;;;;10.10;3.40;;;;;;;12.95;100.00;99555.91;5067513;28;20053;-65
2022/09/15 03:54:36;;;;;;;9.23;3.42;;;;;;;12.92;100.00;99556.16;5075161;28;20040;-61
2022/09/15 03:57:03;;;;;;;12.95;3.95;;;;;;;12.94;100.00;99559.53;5068594;28;20051;-63
2022/09/15 03:59:30;;;;;;;10.07;3.08;;;;;;;12.99;100.00;99559.13;5070550;28;20067;-64
2022/09/15 04:01:57;;;;;;;11.80;3.40;;;;;;;13.00;100.00;99551.06;5066485;28;20048;-64
2022/09/15 04:04:25;;;;;;;11.40;3.58;;;;;;;13.02;100.00;99556.22;5063866;28;20064;-63
2022/09/15 04:06:52;;;;;;;9.65;3.50;;;;;;;13.00;100.00;99552.88;5065012;28;20060;-62
2022/09/15 04:09:20;;;;;;;9.68;3.15;;;;;;;12.98;100.00;99558.28;5065343;28;20466;-64
2022/09/15 04:11:47;;;;;;;10.77;3.38;;;;;;;12.92;100.00;99549.09;5067336;28;20067;-63
2022/09/15 04:14:14;;;;;;;12.88;3.75;;;;;;;12.91;100.00;99550.03;5059376;28;20052;-61
2022/09/15 04:16:41;;;;;;;13.65;3.35;;;;;;;12.90;100.00;99545.72;5064943;28;20052;-63
2022/09/15 04:19:08;;;;;;;6.60;3.17;;;;;;;12.87;100.00;99550.44;5060035;28;20052;-64
2022/09/15 04:21:36;;;;;;;8.23;3.50;;;;;;;12.88;100.00;99552.13;5049846;28;20071;-62
2022/09/15 04:24:04;;;;;;;8.68;3.42;;;;;;;12.96;100.00;99552.28;5061773;28;20045;-62
2022/09/15 04:26:34;;;;;;;10.50;4.13;;;;;;;12.89;100.00;99549.34;5065436;28;20041;-64
2022/09/15 04:29:03;;;;;;;13.25;3.63;;;;;;;12.85;100.00;99550.56;5060495;28;20062;-62
2022/09/15 04:31:32;;;;;;;10.70;4.18;;;;;;;12.79;100.00;99556.41;5064066;28;20052;-62
2022/09/15 04:33:59;;;;;;;11.65;3.15;;;;;;;12.83;100.00;99562.22;5063615;28;20429;-63
2022/09/15 04:36:27;;;;;;;9.57;3.33;;;;;;;12.83;100.00;99560.44;5067811;28;20048;-63
2022/09/15 04:38:55;;;;;;;11.38;3.55;;;;;;;12.80;100.00;99552.78;5068389;28;20825;-64
2022/09/15 04:41:26;;;;;;;9.48;3.53;;;;;;;12.77;100.00;99546.91;5059945;28;20065;-63
2022/09/15 04:43:53;;;;;;;9.10;3.50;;;;;;;12.74;100.00;99540.06;5044642;28;20177;-61
2022/09/15 04:46:20;;;;;;;14.43;3.88;;;;;;;12.68;100.00;99544.09;5065809;28;20445;-62
2022/09/15 04:48:48;;;;;;;11.02;3.90;;;;;;;12.65;100.00;99552.28;5045115;28;20047;-64
2022/09/15 04:51:18;;;;;;;10.38;3.72;;;;;;;12.67;100.00;99542.41;5068863;28;20048;-59
2022/09/15 04:53:47;;;;;;;9.90;4.03;;;;;;;12.64;100.00;99540.03;5084158;22;20061;-66
2022/09/15 04:56:16;;;;;;;9.90;3.65;;;;;;;12.71;100.00;99542.16;5058449;28;20052;-64
2022/09/15 04:58:45;;;;;;;8.82;3.13;;;;;;;12.71;100.00;99548.28;5046206;28;20063;-67
2022/09/15 05:01:18;;;;;;;11.63;3.65;;;;;;;12.78;100.00;99549.41;5049053;28;20053;-66
2022/09/15 05:03:46;;;;;;;13.52;4.30;;;;;;;12.77;100.00;99554.84;5039618;28;20537;-66
2022/09/15 05:06:18;;;;;;;12.18;3.85;;;;;;;12.70;100.00;99548.38;5059587;28;20094;-65
2022/09/15 05:08:47;;;;;;;14.60;4.03;;;;;;;12.67;100.00;99560.91;5038708;28;20056;-66
2022/09/15 05:11:15;;;;;;;11.25;4.40;;;;;;;12.64;100.00;99547.94;5035413;28;20045;-67
2022/09/15 05:13:42;;;;;;;9.85;3.55;;;;;;;12.63;100.00;99551.56;5042852;28;20041;-66
2022/09/15 05:16:19;;;;;;;13.00;4.70;;;;;;;12.68;100.00;99554.66;5028667;28;20416;-66
2022/09/15 05:18:47;;;;;;;12.88;4.45;;;;;;;12.80;100.00;99555.41;5064552;28;20136;-65
2022/09/15 05:21:17;;;;;;;9.35;3.95;;;;;;;12.82;100.00;99548.19;5051169;28;20044;-66
2022/09/15 05:23:45;;;;;;;8.93;3.60;;;;;;;12.81;100.00;99553.63;5066839;28;20411;-65
2022/09/15 05:26:14;;;;;;;12.30;3.88;;;;;;;12.85;100.00;99550.56;5051883;28;20055;-66
2022/09/15 05:28:41;;;;;;;10.30;3.78;;;;;;;12.83;100.00;99549.88;5028959;28;20421;-66
2022/09/15 05:31:29;;;;;;;8.18;2.95;;;;;;;12.83;100.00;99549.03;5053632;28;20048;-67
2022/09/15 05:33:59;;;;;;;10.93;4.72;;;;;;;12.80;100.00;99555.41;5023159;28;20053;-67
2022/09/15 05:36:27;;;;;;;9.02;3.35;;;;;;;12.84;100.00;99550.72;5057737;28;20059;-66
2022/09/15 05:38:57;;;;;;;12.07;4.15;;;;;;;12.84;100.00;99550.72;5048993;28;20563;-67
2022/09/15 05:41:26;;;;;;;14.77;3.83;;;;;;;12.82;100.00;99550.84;5061578;28;20056;-67
2022/09/15 05:43:55;;;;;;;11.18;4.10;;;;;;;12.79;100.00;99551.13;5049216;28;20049;-66
2022/09/15 05:46:24;;;;;;;7.47;3.75;;;;;;;12.84;100.00;99553.38;5058427;28;20052;-66
2022/09/15 05:48:55;;;;;;;15.25;4.03;;;;;;;12.83;100.00;99556.94;5048571;28;20052;-65
2022/09/15 05:51:22;;;;;;;11.73;5.50;;;;;;;12.97;100.00;99561.91;5051356;28;20056;-66
2022/09/15 05:53:50;;;;;;;16.02;4.90;;;;;;;12.98;100.00;99562.75;5053169;28;20049;-66
2022/09/15 05:56:17;;;;;;;14.00;4.63;;;;;;;12.94;100.00;99562.16;5065359;28;20591;-66
2022/09/15 05:58:46;;;;;;;11.27;3.88;;;;;;;12.98;100.00;99560.09;5031316;28;20079;-65
2022/09/15 06:01:17;;;;;;;11.98;3.92;;;;;;;13.13;100.00;99559.59;5029925;28;20131;-66
2022/09/15 06:03:44;;;;;;;12.27;3.90;;;;;;;13.13;100.00;99550.84;5034343;28;20056;-66
2022/09/15 06:06:12;;;;;;;14.07;3.90;;;;;;;13.13;100.00;99554.31;5074741;28;20057;-65
2022/09/15 06:08:45;;;;;;;11.90;4.45;;;;;;;13.25;100.00;99567.47;5063925;28;20048;-65
2022/09/15 06:11:19;;;;;;;13.90;4.70;;;;;;;13.25;99.77;99560.38;5051202;28;20413;-65
2022/09/15 06:13:46;;;;;;;13.90;3.22;;;;;;;13.23;99.87;99558.84;5039868;28;20492;-64
2022/09/15 06:16:17;;;;;;;12.70;3.95;;;;;;;13.22;100.00;99560.66;5050894;28;20054;-65
2022/09/15 06:18:45;;;;;;;13.80;3.97;;;;;;;13.22;100.00;99559.78;5072557;28;20032;-65
2022/09/15 06:21:17;;;;;;;8.77;2.97;;;;;;;13.25;99.86;99572.78;5066095;28;20710;-65
2022/09/15 06:23:44;;;;;;;13.77;3.47;;;;;;;13.23;99.82;99566.75;5065542;28;20064;-66
2022/09/15 06:26:18;;;;;;;9.63;3.03;;;;;;;13.30;98.88;99563.47;5067247;28;20060;-66
2022/09/15 06:28:50;;;;;;;15.38;3.60;;;;;;;13.28;98.57;99567.19;5068459;28;20055;-65
2022/09/15 06:31:18;;;;;;;13.95;4.43;;;;;;;13.25;98.77;99568.31;5049462;28;20358;-65
2022/09/15 06:33:47;;;;;;;9.70;3.20;;;;;;;13.29;98.76;99571.53;5068116;28;20049;-65
2022/09/15 06:36:15;;;;;;;13.38;3.22;;;;;;;13.36;98.44;99564.72;5049006;28;20507;-64
2022/09/15 06:38:43;;;;;;;12.45;3.33;;;;;;;13.39;97.67;99567.13;5062105;28;20060;-64
2022/09/15 06:41:11;;;;;;;7.40;3.05;;;;;;;13.49;96.66;99560.03;5075200;28;20053;-64
2022/09/15 06:43:38;;;;;;;9.10;3.22;;;;;;;13.45;97.15;99574.50;5055715;28;20056;-65
2022/09/15 06:46:10;;;;;;;14.73;2.60;;;;;;;13.50;96.59;99572.28;5058731;28;20057;-65
2022/09/15 06:48:39;;;;;;;11.30;4.00;;;;;;;13.53;96.72;99565.91;5058933;28;20139;-65
2022/09/15 06:51:09;;;;;;;9.70;3.95;;;;;;;13.53;96.01;99565.91;5068483;28;20441;-65
2022/09/15 06:53:37;;;;;;;9.27;3.13;;;;;;;13.51;96.81;99563.41;5050686;28;20060;-65
2022/09/15 06:56:06;;;;;;;7.05;3.13;;;;;;;13.55;97.01;99569.22;5055147;28;20440;-65
2022/09/15 06:58:34;;;;;;;9.27;3.15;;;;;;;13.60;96.65;99567.88;5047719;28;20076;-65
2022/09/15 07:01:12;;;;;;;11.18;3.03;;;;;;;13.66;96.46;99577.06;5045307;28;20041;-64
2022/09/15 07:03:42;;;;;;;11.15;3.08;;;;;;;13.70;96.18;99573.19;5062429;28;20036;-65
2022/09/15 07:06:11;;;;;;;8.93;3.30;;;;;;;13.67;96.30;99579.56;5063537;28;20040;-66
2022/09/15 07:08:39;;;;;;;15.07;4.00;;;;;;;13.73;95.98;99572.88;5070769;28;20049;-66
2022/09/15 07:11:07;;;;;;;9.40;3.08;;;;;;;13.71;96.29;99581.94;5072241;28;20131;-65
2022/09/15 07:13:35;;;;;;;20.23;4.28;;;;;;;13.79;96.66;99584.75;5053869;28;20049;-66
2022/09/15 07:16:04;;;;;;;10.98;3.30;;;;;;;13.77;96.08;99582.22;5064287;28;20057;-64
2022/09/15 07:18:32;;;;;;;17.35;4.28;;;;;;;13.83;95.61;99588.81;5055078;28;20063;-64
2022/09/15 07:21:02;;;;;;;20.52;4.25;;;;;;;13.84;95.35;99588.66;5071714;28;20408;-65
2022/09/15 07:23:29;;;;;;;17.67;3.85;;;;;;;13.83;95.72;99602.03;5051689;28;20052;-65
2022/09/15 07:26:12;;;;;;;8.32;3.20;;;;;;;13.83;95.29;99594.09;5049910;28;20070;-66
2022/09/15 07:28:41;;;;;;;7.63;3.67;;;;;;;13.81;95.41;99602.16;5064036;28;20127;-65
2022/09/15 07:31:10;;;;;;;12.65;4.63;;;;;;;13.78;95.83;99610.38;5061166;28;20053;-65
2022/09/15 07:33:37;;;;;;;10.85;3.70;;;;;;;13.84;95.18;99603.72;5056471;28;20057;-65
2022/09/15 07:36:05;;;;;;;7.30;3.28;;;;;;;13.89;94.39;99604.13;5072044;28;20059;-64
2022/09/15 07:38:34;;;;;;;12.95;4.30;;;;;;;13.80;95.34;99611.06;5046710;28;20059;-65
2022/09/15 07:41:05;;;;;;;9.88;3.67;;;;;;;13.78;95.48;99605.09;5068825;28;20140;-65
2022/09/15 07:43:33;;;;;;;11.50;3.28;;;;;;;13.81;95.38;99603.97;5053566;28;20056;-66
2022/09/15 07:46:02;;;;;;;7.55;3.92;;;;;;;13.76;95.31;99606.19;5067385;28;20068;-66
2022/09/15 07:48:29;;;;;;;8.13;4.03;;;;;;;13.80;95.34;99611.06;5062632;28;20055;-65
2022/09/15 07:50:58;;;;;;;13.32;3.53;;;;;;;13.85;95.57;99624.72;5043610;28;20044;-66
2022/09/15 07:53:29;;;;;;;8.98;3.17;;;;;;;13.92;94.80;99619.75;5051345;28;20512;-65
2022/09/15 07:55:56;;;;;;;10.25;3.63;;;;;;;14.01;94.11;99623.38;5066633;28;20162;-65
2022/09/15 07:58:24;;;;;;;9.77;3.38;;;;;;;13.96;94.04;99631.72;5069432;28;20064;-66
2022/09/15 08:00:51;;;;;;;12.85;3.97;;;;;;;14.01;94.29;99629.50;5064611;28;20071;-66
2022/09/15 08:03:18;;;;;;;9.35;4.07;;;;;;;14.03;93.95;99635.47;5065962;28;20083;-65
2022/09/15 08:05:45;;;;;;;14.82;4.25;;;;;;;14.08;93.36;99635.06;5040164;28;20052;-65
2022/09/15 08:08:13;;;;;;;14.13;3.67;;;;;;;14.13;92.72;99641.63;5059152;28;20516;-66
2022/09/15 08:10:40;;;;;;;10.20;2.85;;;;;;;14.07;92.84;99634.25;5068977;28;20301;-65
2022/09/15 08:13:07;;;;;;;8.25;3.65;;;;;;;14.11;93.24;99638.28;5041867;28;20052;-66
2022/09/15 08:15:36;;;;;;;9.20;3.13;;;;;;;14.19;93.35;99627.03;5063204;28;20044;-65
2022/09/15 08:18:04;;;;;;;7.97;3.33;;;;;;;14.26;92.60;99628.13;5066377;28;20048;-65
2022/09/15 08:20:31;;;;;;;10.50;3.22;;;;;;;14.36;92.74;99620.19;5068547;28;20052;-64
2022/09/15 08:22:59;;;;;;;7.95;3.53;;;;;;;14.49;92.39;99628.72;5033857;28;20643;-65
2022/09/15 08:25:26;;;;;;;7.90;3.50;;;;;;;14.52;90.42;99623.16;5049195;28;20050;-65
2022/09/15 08:27:55;;;;;;;9.95;3.85;;;;;;;14.54;90.85;99618.53;5036130;28;20040;-65
2022/09/15 08:30:22;;;;;;;12.65;3.67;;;;;;;14.57;90.32;99618.25;5059892;28;20064;-65
2022/09/15 08:32:50;;;;;;;11.27;3.38;;;;;;;14.55;90.45;99625.53;5063689;28;20365;-65
2022/09/15 08:35:17;;;;;;;10.50;3.20;;;;;;;14.59;90.25;99623.41;5062329;28;20131;-65
2022/09/15 08:37:45;;;;;;;8.25;3.03;;;;;;;14.64;89.86;99619.38;5051071;28;20054;-65
2022/09/15 08:40:22;;;;;;;12.68;3.08;;;;;;;14.81;89.47;99622.28;5061198;28;20056;-65
2022/09/15 08:42:52;;;;;;;13.25;3.55;;;;;;;14.85;89.10;99626.31;5052945;28;20050;-65
2022/09/15 08:45:25;;;;;;;10.65;2.80;;;;;;;14.90;88.94;99630.25;5040315;28;20057;-65
2022/09/15 08:47:57;;;;;;;12.60;2.83;;;;;;;15.00;88.45;99630.22;5051942;28;20052;-65
2022/09/15 08:50:29;;;;;;;10.38;3.28;;;;;;;15.03;87.97;99634.38;5061864;28;20508;-65
2022/09/15 08:53:08;;;;;;;14.13;2.88;;;;;;;15.09;88.12;99629.34;5047483;28;20095;-65
2022/09/15 08:55:43;;;;;;;10.00;2.80;;;;;;;15.14;86.95;99629.75;5046848;28;20434;-65
2022/09/15 08:58:14;;;;;;;6.50;2.35;;;;;;;15.33;84.63;99634.16;5052238;28;20105;-65
2022/09/15 09:00:43;;;;;;;12.13;2.90;;;;;;;15.18;85.37;99630.31;5032235;28;20044;-64
2022/09/15 09:03:27;;;;;;;13.15;3.78;;;;;;;15.13;85.27;99620.13;5049513;28;20056;-65
2022/09/15 09:06:27;;;;;;;6.82;2.08;;;;;;;15.20;84.74;99623.88;5044436;28;20412;-65
2022/09/15 09:09:03;;;;;;;9.57;2.22;;;;;;;15.19;84.41;99634.63;5057217;28;20059;-65
2022/09/15 09:11:42;;;;;;;9.40;2.15;;;;;;;15.18;82.81;99622.34;5047658;28;20061;-65
2022/09/15 09:14:43;;;;;;;15.98;2.10;;;;;;;15.19;82.53;99619.56;5035329;28;20064;-65
2022/09/15 09:17:16;;;;;;;7.50;1.85;;;;;;;15.22;81.82;99623.75;5065822;28;20132;-65
2022/09/15 09:19:58;;;;;;;12.00;1.80;;;;;;;15.17;80.02;99625.97;5064438;28;20075;-65
2022/09/15 09:22:30;;;;;;;9.00;1.55;;;;;;;15.13;79.98;99635.19;5067466;28;20090;-65
2022/09/15 09:24:59;;;;;;;9.52;2.08;;;;;;;15.03;80.55;99632.56;5051271;28;20527;-65
2022/09/15 09:27:38;;;;;;;6.22;1.60;;;;;;;14.99;80.93;99631.16;5071739;28;20127;-64
2022/09/15 09:30:16;;;;;;;12.25;2.55;;;;;;;15.02;81.62;99632.72;5046650;28;20071;-64
2022/09/15 09:33:21;;;;;;;10.10;2.97;;;;;;;15.13;82.02;99630.75;5052274;28;20052;-64
2022/09/15 09:35:52;;;;;;;10.98;1.83;;;;;;;15.29;82.10;99622.16;5049906;28;20123;-64
2022/09/15 09:38:30;;;;;;;7.32;1.88;;;;;;;15.45;81.66;99626.88;5049526;28;20045;-65
2022/09/15 09:40:58;;;;;;;6.65;1.98;;;;;;;15.58;80.68;99634.47;5073769;28;20060;-65
2022/09/15 09:43:30;;;;;;;12.52;1.73;;;;;;;15.67;80.52;99626.50;5068118;28;20052;-65
2022/09/15 09:45:58;;;;;;;6.20;1.60;;;;;;;15.69;79.31;99629.00;5038072;28;20044;-64
2022/09/15 09:48:26;;;;;;;6.10;1.60;;;;;;;15.78;78.18;99627.28;5047937;28;20148;-64
2022/09/15 09:50:54;;;;;;;4.70;1.42;;;;;;;15.89;78.86;99624.41;5055965;28;20049;-65
2022/09/15 09:53:31;;;;;;;6.90;1.67;;;;;;;15.94;78.04;99624.84;5062936;28;20506;-65
2022/09/15 09:56:22;;;;;;;8.20;1.70;;;;;;;16.10;76.61;99621.50;5062180;28;20095;-65
2022/09/15 09:58:50;;;;;;;9.25;1.60;;;;;;;16.22;75.16;99630.09;5073712;28;20052;-65
2022/09/15 10:01:19;;;;;;;6.18;1.60;;;;;;;16.10;73.97;99630.31;5078304;28;20052;-65
2022/09/15 10:03:46;;;;;;;4.93;1.17;;;;;;;16.09;73.03;99625.97;5047250;28;20739;-65
2022/09/15 10:06:21;;;;;;;4.75;1.17;;;;;;;16.06;73.87;99628.09;5065038;28;20044;-65
2022/09/15 10:08:57;;;;;;;4.40;1.27;;;;;;;16.14;74.27;99628.19;5047055;28;20151;-65
2022/09/15 10:11:45;;;;;;;10.90;1.35;;;;;;;16.26;70.09;99642.09;5063775;28;20052;-64
2022/09/15 10:14:21;;;;;;;5.93;2.22;;;;;;;16.56;69.54;99625.75;5064548;28;20044;-64
2022/09/15 10:17:00;;;;;;;4.45;1.30;;;;;;;16.59;66.70;99622.78;5037230;28;20052;-65
2022/09/15 10:19:30;;;;;;;6.80;1.10;;;;;;;16.62;67.46;99632.28;5060773;28;20076;-65
2022/09/15 10:21:59;;;;;;;6.13;1.23;;;;;;;16.59;67.08;99633.44;5047639;28;20409;-65
2022/09/15 10:24:33;;;;;;;6.78;1.58;;;;;;;16.55;67.66;99633.88;5077500;28;20048;-65
2022/09/15 10:27:17;;;;;;;4.03;1.08;;;;;;;16.46;67.70;99639.13;5043032;28;20048;-65
2022/09/15 10:29:45;;;;;;;9.85;1.75;;;;;;;16.49;68.07;99629.19;5068012;28;20057;-65
2022/09/15 10:32:21;;;;;;;8.60;1.30;;;;;;;16.55;68.50;99620.59;5071111;28;20052;-64
2022/09/15 10:35:05;;;;;;;6.13;1.20;;;;;;;16.73;68.45;99617.94;5069904;28;20045;-65
2022/09/15 10:37:36;;;;;;;8.05;1.52;;;;;;;16.84;66.89;99630.97;5062696;28;20064;-65
2022/09/15 10:40:32;;;;;;;6.05;1.23;;;;;;;17.09;65.36;99627.50;5052827;28;20051;-65
2022/09/15 10:43:31;;;;;;;9.60;1.77;;;;;;;17.20;64.67;99629.94;5052552;28;20051;-64
2022/09/15 10:46:13;;;;;;;9.68;1.42;;;;;;;17.37;63.85;99627.34;5053492;28;20439;-65
2022/09/15 10:48:51;;;;;;;6.28;1.10;;;;;;;17.46;62.41;99631.69;5047397;28;20053;-65
2022/09/15 10:51:40;;;;;;;7.88;1.50;;;;;;;17.44;60.99;99639.84;5046004;28;20060;-65
2022/09/15 10:54:09;;;;;;;6.20;2.03;;;;;;;17.48;61.86;99620.94;5039801;23;20061;-64
2022/09/15 10:56:40;;;;;;;6.50;1.48;;;;;;;17.39;60.76;99625.38;5039134;28;20053;-62
2022/09/15 10:59:42;;;;;;;6.43;1.00;;;;;;;17.25;58.75;99616.16;5025190;28;20053;-62
2022/09/15 11:02:25;;;;;;;6.43;1.20;;;;;;;17.18;59.13;99618.59;5028324;28;20409;-66
2022/09/15 11:05:30;;;;;;;15.52;2.50;;;;;;;17.07;59.16;99618.88;5040534;28;20159;-63
2022/09/15 11:08:38;;;;;;;7.53;1.58;;;;;;;17.02;59.86;99622.97;5035747;28;20102;-60
2022/09/15 11:11:47;;;;;;;7.32;1.35;;;;;;;17.03;60.51;99617.50;5038577;28;21006;-63
2022/09/15 11:14:52;;;;;;;4.53;1.48;;;;;;;16.95;61.38;99625.44;5015666;28;20058;-63
2022/09/15 11:17:34;;;;;;;5.97;1.67;;;;;;;16.84;60.78;99636.28;5019137;28;20049;-63
2022/09/15 11:20:29;;;;;;;8.30;1.65;;;;;;;16.82;61.71;99628.50;5043552;28;20064;-64
2022/09/15 11:23:04;;;;;;;4.43;1.23;;;;;;;16.90;61.50;99630.38;5041962;28;20057;-64
2022/09/15 11:25:34;;;;;;;6.68;1.40;;;;;;;16.81;61.54;99631.31;5030937;28;20525;-62
2022/09/15 11:28:29;;;;;;;3.80;1.40;;;;;;;16.86;61.59;99618.38;5025087;28;20059;-64
2022/09/15 11:31:08;;;;;;;9.43;1.30;;;;;;;17.02;61.61;99620.31;5031163;28;20056;-64
2022/09/15 11:33:43;;;;;;;4.40;1.50;;;;;;;17.00;61.92;99620.47;5025894;28;20886;-63
2022/09/15 11:36:14;;;;;;;7.55;1.85;;;;;;;17.26;61.53;99614.31;5049621;28;20063;-64
2022/09/15 11:38:54;;;;;;;7.53;1.90;;;;;;;17.55;60.21;99613.94;5023307;28;20142;-64
2022/09/15 11:41:27;;;;;;;6.57;2.00;;;;;;;17.65;60.42;99606.66;5041082;28;20056;-62
2022/09/15 11:44:04;;;;;;;5.32;1.27;;;;;;;17.66;60.62;99609.19;5024659;28;20049;-64
2022/09/15 11:46:58;;;;;;;8.32;1.45;;;;;;;17.58;60.12;99613.66;5038532;28;20362;-65
2022/09/15 11:49:35;;;;;;;6.45;1.17;;;;;;;17.35;58.89;99614.19;5019697;28;20489;-64